Time;durP1;ratioP1;P1;durP2;ratioP2;P2;SDS_P1;SDS_P2;PMS_P1;PMS_P2;Temp;Humidity;BMP_temperature;BMP_pressure;BME280_temperature;BME280_humidity;BME280_pressure;Samples;Min_cycle;Max_cycle;Signal;HPM_P1;HPM_P2
2023/03/20 00:00:58;;;;;;;;;;;;;;;;;;5134871;27;1850;-40
2023/03/20 00:03:26;;;;;;;;;;;;;;;;;;5134963;27;1934;-40
2023/03/20 00:05:53;;;;;;;;;;;;;;;;;;5134855;27;2072;-40
2023/03/20 00:08:21;;;;;;;;;;;;;;;;;;5134859;27;2163;-39
2023/03/20 00:10:48;;;;;;;;;;;;;;;;;;5134869;27;1910;-40
2023/03/20 00:13:23;;;;;;;;;;;;;;;;;;5134148;27;1904;-40
2023/03/20 00:15:50;;;;;;;;;;;;;;;;;;5134801;27;1896;-40
2023/03/20 00:18:21;;;;;;;;;;;;;;;;;;5134719;27;2320;-40
2023/03/20 00:20:50;;;;;;;;;;;;;;;;;;5134627;27;2114;-40
2023/03/20 00:23:17;;;;;;;;;;;;;;;;;;5134457;27;1857;-41
2023/03/20 00:25:44;;;;;;;;;;;;;;;;;;5134468;27;1811;-40
2023/03/20 00:28:39;;;;;;;;;;;;;;;;;;5134712;27;1734;-40
2023/03/20 00:31:17;;;;;;;;;;;;;;;;;;5134391;27;1976;-39
2023/03/20 00:33:45;;;;;;;;;;;;;;;;;;5115885;27;2167;-43
2023/03/20 00:36:12;;;;;;;;;;;;;;;;;;5115895;27;2034;-40
2023/03/20 00:38:39;;;;;;;;;;;;;;;;;;5134180;27;1917;-41
2023/03/20 00:41:22;;;;;;;;;;;;;;;;;;5115915;27;1892;-40
2023/03/20 00:43:51;;;;;;;;;;;;;;;;;;5115577;27;2280;-40
2023/03/20 00:46:18;;;;;;;;;;;;;;;;;;5134150;27;1702;-40
2023/03/20 00:48:46;;;;;;;;;;;;;;;;;;5115506;27;2344;-41
2023/03/20 00:51:15;;;;;;;;;;;;;;;;;;5134013;27;1976;-40
2023/03/20 00:53:43;;;;;;;;;;;;;;;;;;5137494;27;1329;-42
2023/03/20 00:56:32;;;;;;;;;;;;;;;;;;5145404;27;1869;-40
2023/03/20 00:59:00;;;;;;;;;;;;;;;;;;5133864;27;1922;-40
2023/03/20 01:01:28;;;;;;;;;;;;;;;;;;5133447;27;2336;-41
2023/03/20 01:03:55;;;;;;;;;;;;;;;;;;5115386;27;2015;-44
2023/03/20 01:06:23;;;;;;;;;;;;;;;;;;5119642;27;2199;-40
2023/03/20 01:08:50;;;;;;;;;;;;;;;;;;5115186;27;1837;-41
2023/03/20 01:11:20;;;;;;;;;;;;;;;;;;5115056;27;2170;-41
2023/03/20 01:13:47;;;;;;;;;;;;;;;;;;5133575;27;1982;-41
2023/03/20 01:16:22;;;;;;;;;;;;;;;;;;5133741;27;1756;-43
2023/03/20 01:18:50;;;;;;;;;;;;;;;;;;5133504;27;2254;-40
2023/03/20 01:21:17;;;;;;;;;;;;;;;;;;5133600;27;1554;-43
2023/03/20 01:23:45;;;;;;;;;;;;;;;;;;5133709;27;2248;-40
2023/03/20 01:26:35;;;;;;;;;;;;;;;;;;5114554;27;1697;-41
2023/03/20 01:29:03;;;;;;;;;;;;;;;;;;5127867;27;1624;-40
2023/03/20 01:31:32;;;;;;;;;;;;;;;;;;5114353;27;2003;-43
2023/03/20 01:34:02;;;;;;;;;;;;;;;;;;5114793;27;1776;-45
2023/03/20 01:36:29;;;;;;;;;;;;;;;;;;5114595;27;1667;-41
2023/03/20 01:38:57;;;;;;;;;;;;;;;;;;5132971;27;2134;-47
2023/03/20 01:41:25;;;;;;;;;;;;;;;;;;5114527;27;1985;-45
2023/03/20 01:43:52;;;;;;;;;;;;;;;;;;5114874;27;1839;-41
2023/03/20 01:46:30;;;;;;;;;;;;;;;;;;5131879;27;2095;-41
2023/03/20 01:49:20;;;;;;;;;;;;;;;;;;5114258;27;1651;-41
2023/03/20 01:51:50;;;;;;;;;;;;;;;;;;5114173;27;2174;-40
2023/03/20 01:54:21;;;;;;;;;;;;;;;;;;5114366;27;2115;-40
2023/03/20 01:57:03;;;;;;;;;;;;;;;;;;5126055;27;1489;-40
2023/03/20 01:59:41;;;;;;;;;;;;;;;;;;5114120;27;2023;-41
2023/03/20 02:02:09;;;;;;;;;;;;;;;;;;5114395;27;1906;-41
2023/03/20 02:04:39;;;;;;;;;;;;;;;;;;5113940;27;2044;-40
2023/03/20 02:07:09;;;;;;;;;;;;;;;;;;5132430;27;1986;-46
2023/03/20 02:09:57;;;;;;;;;;;;;;;;;;5131482;27;1973;-45
2023/03/20 02:12:36;;;;;;;;;;;;;;;;;;5113598;27;2289;-41
2023/03/20 02:15:06;;;;;;;;;;;;;;;;;;5113639;27;1793;-43
2023/03/20 02:17:54;;;;;;;;;;;;;;;;;;5131499;27;1827;-42
2023/03/20 02:20:30;;;;;;;;;;;;;;;;;;5114064;27;2050;-41
2023/03/20 02:23:04;;;;;;;;;;;;;;;;;;5113902;27;2237;-44
2023/03/20 02:25:52;;;;;;;;;;;;;;;;;;5113739;28;1839;-41
2023/03/20 02:28:21;;;;;;;;;;;;;;;;;;5113840;27;1936;-41
2023/03/20 02:31:07;;;;;;;;;;;;;;;;;;5113528;27;2019;-44
2023/03/20 02:33:50;;;;;;;;;;;;;;;;;;5113569;27;2195;-46
2023/03/20 02:36:27;;;;;;;;;;;;;;;;;;5132233;27;1887;-41
2023/03/20 02:39:10;;;;;;;;;;;;;;;;;;5132134;28;1782;-41
2023/03/20 02:41:51;;;;;;;;;;;;;;;;;;5113516;28;1502;-41
2023/03/20 02:44:42;;;;;;;;;;;;;;;;;;5132186;28;1849;-40
2023/03/20 02:47:13;;;;;;;;;;;;;;;;;;5113724;28;2063;-40
2023/03/20 02:49:54;;;;;;;;;;;;;;;;;;5113559;28;2364;-41
2023/03/20 02:52:35;;;;;;;;;;;;;;;;;;5113475;28;2200;-45
2023/03/20 02:55:05;;;;;;;;;;;;;;;;;;5113389;28;2186;-42
2023/03/20 02:57:33;;;;;;;;;;;;;;;;;;5113321;28;1847;-41
2023/03/20 03:00:04;;;;;;;;;;;;;;;;;;5113318;28;2170;-41
2023/03/20 03:02:34;;;;;;;;;;;;;;;;;;5132152;28;1590;-41
2023/03/20 03:05:04;;;;;;;;;;;;;;;;;;5113174;28;2154;-49
2023/03/20 03:07:32;;;;;;;;;;;;;;;;;;5132051;28;1764;-41
2023/03/20 03:10:09;;;;;;;;;;;;;;;;;;5131702;28;2114;-43
2023/03/20 03:12:41;;;;;;;;;;;;;;;;;;5131712;28;2222;-45
2023/03/20 03:15:26;;;;;;;;;;;;;;;;;;5113316;28;1950;-46
2023/03/20 03:17:54;;;;;;;;;;;;;;;;;;5132109;28;1711;-43
2023/03/20 03:20:28;;;;;;;;;;;;;;;;;;5132066;28;2078;-43
2023/03/20 03:22:56;;;;;;;;;;;;;;;;;;5113397;28;2065;-41
2023/03/20 03:25:24;;;;;;;;;;;;;;;;;;5115356;27;1884;-41
2023/03/20 03:28:21;;;;;;;;;;;;;;;;;;5136093;27;1909;-41
2023/03/20 03:30:49;;;;;;;;;;;;;;;;;;5112822;27;1907;-41
2023/03/20 03:33:21;;;;;;;;;;;;;;;;;;5135366;27;1548;-41
2023/03/20 03:35:49;;;;;;;;;;;;;;;;;;5135745;27;2298;-41
2023/03/20 03:38:24;;;;;;;;;;;;;;;;;;5135466;27;1686;-41
2023/03/20 03:40:57;;;;;;;;;;;;;;;;;;5116742;27;2011;-41
2023/03/20 03:43:28;;;;;;;;;;;;;;;;;;5117271;27;1909;-41
2023/03/20 03:46:03;;;;;;;;;;;;;;;;;;5116859;27;2139;-41
2023/03/20 03:48:57;;;;;;;;;;;;;;;;;;5135400;27;1714;-42
2023/03/20 03:51:27;;;;;;;;;;;;;;;;;;5134011;27;1972;-41
2023/03/20 03:54:07;;;;;;;;;;;;;;;;;;5134670;27;2099;-51
2023/03/20 03:56:36;;;;;;;;;;;;;;;;;;5116446;27;1937;-41
2023/03/20 03:59:07;;;;;;;;;;;;;;;;;;5116378;27;1956;-41
2023/03/20 04:01:35;;;;;;;;;;;;;;;;;;5116635;27;1962;-41
2023/03/20 04:04:06;;;;;;;;;;;;;;;;;;5134849;27;1684;-41
2023/03/20 04:06:33;;;;;;;;;;;;;;;;;;5116155;27;2064;-41
2023/03/20 04:09:00;;;;;;;;;;;;;;;;;;5134685;27;2081;-40
2023/03/20 04:11:28;;;;;;;;;;;;;;;;;;5134844;27;1948;-40
2023/03/20 04:13:55;;;;;;;;;;;;;;;;;;5134780;27;1891;-41
2023/03/20 04:16:23;;;;;;;;;;;;;;;;;;5134589;27;1589;-41
2023/03/20 04:18:52;;;;;;;;;;;;;;;;;;5116188;27;2170;-40
2023/03/20 04:21:20;;;;;;;;;;;;;;;;;;5134582;27;1800;-41
2023/03/20 04:23:47;;;;;;;;;;;;;;;;;;5116034;27;2194;-41
2023/03/20 04:26:14;;;;;;;;;;;;;;;;;;5124973;27;2291;-41
2023/03/20 04:28:41;;;;;;;;;;;;;;;;;;5136599;27;1692;-46
2023/03/20 04:31:41;;;;;;;;;;;;;;;;;;5108575;27;1977;-50
2023/03/20 04:34:15;;;;;;;;;;;;;;;;;;5154945;27;1949;-40
2023/03/20 04:37:07;;;;;;;;;;;;;;;;;;5153935;27;1937;-40
2023/03/20 04:39:58;;;;;;;;;;;;;;;;;;5136169;27;1507;-41
2023/03/20 04:42:26;;;;;;;;;;;;;;;;;;5154527;27;1928;-41
2023/03/20 04:44:59;;;;;;;;;;;;;;;;;;5136621;27;1767;-41
2023/03/20 04:47:28;;;;;;;;;;;;;;;;;;5136248;27;1972;-41
2023/03/20 04:49:55;;;;;;;;;;;;;;;;;;5136376;27;2145;-40
2023/03/20 04:52:22;;;;;;;;;;;;;;;;;;5135676;27;1909;-51
2023/03/20 04:54:50;;;;;;;;;;;;;;;;;;5136081;27;2102;-44
2023/03/20 04:57:17;;;;;;;;;;;;;;;;;;5132406;27;1998;-41
2023/03/20 04:59:44;;;;;;;;;;;;;;;;;;5133832;27;1832;-43
2023/03/20 05:02:13;;;;;;;;;;;;;;;;;;5133796;27;1832;-40
2023/03/20 05:04:41;;;;;;;;;;;;;;;;;;5115471;27;2278;-45
2023/03/20 05:07:10;;;;;;;;;;;;;;;;;;5115178;27;1918;-46
2023/03/20 05:09:47;;;;;;;;;;;;;;;;;;5115128;27;1649;-45
2023/03/20 05:12:15;;;;;;;;;;;;;;;;;;5115058;27;1913;-41
2023/03/20 05:15:01;;;;;;;;;;;;;;;;;;5133425;27;2100;-41
2023/03/20 05:17:49;;;;;;;;;;;;;;;;;;5115014;27;1380;-44
2023/03/20 05:20:29;;;;;;;;;;;;;;;;;;5115197;27;1939;-41
2023/03/20 05:23:13;;;;;;;;;;;;;;;;;;5114885;27;2023;-40
2023/03/20 05:25:59;;;;;;;;;;;;;;;;;;5133448;27;1975;-41
2023/03/20 05:28:48;;;;;;;;;;;;;;;;;;5114831;27;1855;-40
2023/03/20 05:31:35;;;;;;;;;;;;;;;;;;5132477;27;2050;-40
2023/03/20 05:34:21;;;;;;;;;;;;;;;;;;5133062;27;1962;-41
2023/03/20 05:37:11;;;;;;;;;;;;;;;;;;5103771;27;1780;-40
2023/03/20 05:40:15;;;;;;;;;;;;;;;;;;5049675;28;1710;-40
2023/03/20 05:43:17;;;;;;;;;;;;;;;;;;5049709;28;1482;-52
2023/03/20 05:46:11;;;;;;;;;;;;;;;;;;5126805;27;1711;-41
2023/03/20 05:48:58;;;;;;;;;;;;;;;;;;5132517;27;2163;-40
2023/03/20 05:51:49;;;;;;;;;;;;;;;;;;5132080;27;2063;-41
2023/03/20 05:54:42;;;;;;;;;;;;;;;;;;5128644;27;1455;-41
2023/03/20 05:57:42;;;;;;;;;;;;;;;;;;5086859;27;1862;-45
2023/03/20 06:00:38;;;;;;;;;;;;;;;;;;5076583;27;1672;-40
2023/03/20 06:03:24;;;;;;;;;;;;;;;;;;5132465;27;1805;-40
2023/03/20 06:06:03;;;;;;;;;;;;;;;;;;5114391;27;2010;-40
2023/03/20 06:08:31;;;;;;;;;;;;;;;;;;5132421;27;2097;-44
2023/03/20 06:10:59;;;;;;;;;;;;;;;;;;5059028;28;9638;-40
2023/03/20 06:13:27;;;;;;;;;;;;;;;;;;5108183;27;1840;-40
2023/03/20 06:15:54;;;;;;;;;;;;;;;;;;5113609;28;2164;-41
2023/03/20 06:18:22;;;;;;;;;;;;;;;;;;5113703;27;2011;-40
2023/03/20 06:20:53;;;;;;;;;;;;;;;;;;5113937;27;2017;-40
2023/03/20 06:23:21;;;;;;;;;;;;;;;;;;5132513;27;1433;-40
2023/03/20 06:25:48;;;;;;;;;;;;;;;;;;5132281;27;1747;-39
2023/03/20 06:28:18;;;;;;;;;;;;;;;;;;5113950;27;2014;-44
2023/03/20 06:30:46;;;;;;;;;;;;;;;;;;5113491;27;1848;-40
2023/03/20 06:33:17;;;;;;;;;;;;;;;;;;5113356;27;1910;-40
2023/03/20 06:36:05;;;;;;;;;;;;;;;;;;5131718;27;1791;-43
2023/03/20 06:38:32;;;;;;;;;;;;;;;;;;5113853;28;2135;-42
2023/03/20 06:41:05;;;;;;;;;;;;;;;;;;5113811;28;1990;-40
2023/03/20 06:43:34;;;;;;;;;;;;;;;;;;5113457;28;1655;-40
2023/03/20 06:46:01;;;;;;;;;;;;;;;;;;5113344;28;1858;-43
2023/03/20 06:48:30;;;;;;;;;;;;;;;;;;5113696;28;1916;-41
2023/03/20 06:50:58;;;;;;;;;;;;;;;;;;5113628;28;1604;-41
2023/03/20 06:53:33;;;;;;;;;;;;;;;;;;5113382;27;2414;-40
2023/03/20 06:56:03;;;;;;;;;;;;;;;;;;5117957;28;2280;-40
2023/03/20 06:58:30;;;;;;;;;;;;;;;;;;5131863;28;1986;-44
2023/03/20 07:00:58;;;;;;;;;;;;;;;;;;5116521;27;2105;-42
2023/03/20 07:03:25;;;;;;;;;;;;;;;;;;5117503;27;1397;-43
2023/03/20 07:05:53;;;;;;;;;;;;;;;;;;5135927;27;2112;-40
2023/03/20 07:08:22;;;;;;;;;;;;;;;;;;5117842;27;2202;-40
2023/03/20 07:10:49;;;;;;;;;;;;;;;;;;5116946;27;2072;-43
2023/03/20 07:13:16;;;;;;;;;;;;;;;;;;5135999;27;1905;-40
2023/03/20 07:15:43;;;;;;;;;;;;;;;;;;5117535;27;1464;-40
2023/03/20 07:18:31;;;;;;;;;;;;;;;;;;5117276;27;1908;-40
2023/03/20 07:21:01;;;;;;;;;;;;;;;;;;5135728;27;1459;-41
2023/03/20 07:23:29;;;;;;;;;;;;;;;;;;5117068;27;2150;-39
2023/03/20 07:25:59;;;;;;;;;;;;;;;;;;5117287;27;1893;-39
2023/03/20 07:28:26;;;;;;;;;;;;;;;;;;5117157;27;2275;-38
2023/03/20 07:31:08;;;;;;;;;;;;;;;;;;5117042;27;1945;-41
2023/03/20 07:33:36;;;;;;;;;;;;;;;;;;5117024;27;1909;-39
2023/03/20 07:36:03;;;;;;;;;;;;;;;;;;5135510;27;2245;-38
2023/03/20 07:38:31;;;;;;;;;;;;;;;;;;5135510;27;1933;-41
2023/03/20 07:41:06;;;;;;;;;;;;;;;;;;5116173;27;2027;-39
2023/03/20 07:43:37;;;;;;;;;;;;;;;;;;5116807;27;2091;-39
2023/03/20 07:46:05;;;;;;;;;;;;;;;;;;5135116;27;2123;-50
2023/03/20 07:48:34;;;;;;;;;;;;;;;;;;5135508;27;2004;-47
2023/03/20 07:51:02;;;;;;;;;;;;;;;;;;5116567;27;2142;-39
2023/03/20 07:53:30;;;;;;;;;;;;;;;;;;5116550;27;1974;-39
2023/03/20 07:55:57;;;;;;;;;;;;;;;;;;5120007;27;1799;-38
2023/03/20 07:58:24;;;;;;;;;;;;;;;;;;5135170;27;1995;-38
2023/03/20 08:00:52;;;;;;;;;;;;;;;;;;5116631;27;2063;-38
2023/03/20 08:03:19;;;;;;;;;;;;;;;;;;5135031;27;1826;-38
2023/03/20 08:05:46;;;;;;;;;;;;;;;;;;5135225;27;1764;-39
2023/03/20 08:08:13;;;;;;;;;;;;;;;;;;5134873;27;1739;-37
2023/03/20 08:10:40;;;;;;;;;;;;;;;;;;5134293;27;1952;-40
2023/03/20 08:13:07;;;;;;;;;;;;;;;;;;5133860;27;1981;-38
2023/03/20 08:15:35;;;;;;;;;;;;;;;;;;5134935;27;1729;-38
2023/03/20 08:18:02;;;;;;;;;;;;;;;;;;5134514;27;1653;-39
2023/03/20 08:20:30;;;;;;;;;;;;;;;;;;5134586;27;1620;-42
2023/03/20 08:22:57;;;;;;;;;;;;;;;;;;5134421;27;1805;-48
2023/03/20 08:25:25;;;;;;;;;;;;;;;;;;5134554;27;1992;-41
2023/03/20 08:27:52;;;;;;;;;;;;;;;;;;5134605;27;1816;-37
2023/03/20 08:30:19;;;;;;;;;;;;;;;;;;5134155;27;1777;-37
2023/03/20 08:32:46;;;;;;;;;;;;;;;;;;5134140;27;2127;-38
2023/03/20 08:35:14;;;;;;;;;;;;;;;;;;5134204;27;1978;-39
2023/03/20 08:37:58;;;;;;;;;;;;;;;;;;5134442;27;1737;-38
2023/03/20 08:40:25;;;;;;;;;;;;;;;;;;5134336;27;2153;-38
2023/03/20 08:42:52;;;;;;;;;;;;;;;;;;5134522;27;1681;-56
2023/03/20 08:45:19;;;;;;;;;;;;;;;;;;5134083;27;2297;-39
2023/03/20 08:47:47;;;;;;;;;;;;;;;;;;5134790;27;2275;-40
2023/03/20 08:50:15;;;;;;;;;;;;;;;;;;5134446;27;2135;-41
2023/03/20 08:52:42;;;;;;;;;;;;;;;;;;5133987;27;2052;-41
2023/03/20 08:55:10;;;;;;;;;;;;;;;;;;5134071;27;2024;-39
2023/03/20 08:57:38;;;;;;;;;;;;;;;;;;5154667;27;2116;-38
2023/03/20 09:00:06;;;;;;;;;;;;;;;;;;5154870;27;1696;-42
2023/03/20 09:02:34;;;;;;;;;;;;;;;;;;5154472;27;1284;-49
2023/03/20 09:05:01;;;;;;;;;;;;;;;;;;5154372;27;1925;-39
2023/03/20 09:07:28;;;;;;;;;;;;;;;;;;5154378;27;1754;-55
2023/03/20 09:09:55;;;;;;;;;;;;;;;;;;5154406;27;1906;-43
2023/03/20 09:12:23;;;;;;;;;;;;;;;;;;5154191;27;1907;-47
2023/03/20 09:14:50;;;;;;;;;;;;;;;;;;5154364;27;1963;-46
2023/03/20 09:17:17;;;;;;;;;;;;;;;;;;5154272;27;1791;-57
2023/03/20 09:19:44;;;;;;;;;;;;;;;;;;5154628;27;1994;-42
2023/03/20 09:22:12;;;;;;;;;;;;;;;;;;5153897;27;1916;-40
2023/03/20 09:24:40;;;;;;;;;;;;;;;;;;5154329;27;1995;-39
2023/03/20 09:27:07;;;;;;;;;;;;;;;;;;5153676;27;2095;-39
2023/03/20 09:29:34;;;;;;;;;;;;;;;;;;5154423;27;2122;-39
2023/03/20 09:32:02;;;;;;;;;;;;;;;;;;5154007;27;1901;-39
2023/03/20 09:34:29;;;;;;;;;;;;;;;;;;5153693;27;2104;-40
2023/03/20 09:36:56;;;;;;;;;;;;;;;;;;5154156;27;1680;-39
2023/03/20 09:39:23;;;;;;;;;;;;;;;;;;5153859;27;1508;-39
2023/03/20 09:41:51;;;;;;;;;;;;;;;;;;5153772;27;2103;-39
2023/03/20 09:44:35;;;;;;;;;;;;;;;;;;5153745;27;1602;-38
2023/03/20 09:47:15;;;;;;;;;;;;;;;;;;5153880;27;1811;-41
2023/03/20 09:49:56;;;;;;;;;;;;;;;;;;5147318;27;1759;-41
2023/03/20 09:52:30;;;;;;;;;;;;;;;;;;5132430;27;2399;-49
2023/03/20 09:55:01;;;;;;;;;;;;;;;;;;5132878;27;1773;-43
2023/03/20 09:57:34;;;;;;;;;;;;;;;;;;5152216;27;2072;-44
2023/03/20 10:00:04;;;;;;;;;;;;;;;;;;5153590;27;1827;-41
2023/03/20 10:02:43;;;;;;;;;;;;;;;;;;5153292;27;1965;-43
2023/03/20 10:05:31;;;;;;;;;;;;;;;;;;5153088;27;2205;-41
2023/03/20 10:08:00;;;;;;;;;;;;;;;;;;5139687;27;2286;-42
2023/03/20 10:10:47;;;;;;;;;;;;;;;;;;5153286;27;1824;-56
2023/03/20 10:13:27;;;;;;;;;;;;;;;;;;5152801;27;1961;-46
2023/03/20 10:16:07;;;;;;;;;;;;;;;;;;5153280;27;1805;-40
2023/03/20 10:18:39;;;;;;;;;;;;;;;;;;5134400;27;2334;-43
2023/03/20 10:21:30;;;;;;;;;;;;;;;;;;5152734;27;2160;-41
2023/03/20 10:24:02;;;;;;;;;;;;;;;;;;5142292;27;1653;-41
2023/03/20 10:26:32;;;;;;;;;;;;;;;;;;5152984;27;1397;-44
2023/03/20 10:29:01;;;;;;;;;;;;;;;;;;5134293;27;2201;-41
2023/03/20 10:31:42;;;;;;;;;;;;;;;;;;5152825;27;1898;-41
2023/03/20 10:34:21;;;;;;;;;;;;;;;;;;5151958;27;1949;-41
2023/03/20 10:36:53;;;;;;;;;;;;;;;;;;5153073;27;1594;-43
2023/03/20 10:39:39;;;;;;;;;;;;;;;;;;5152735;27;1949;-42
2023/03/20 10:42:14;;;;;;;;;;;;;;;;;;5152989;27;2007;-42
2023/03/20 10:44:43;;;;;;;;;;;;;;;;;;5152403;27;1803;-42
2023/03/20 10:47:12;;;;;;;;;;;;;;;;;;5152998;27;1662;-43
2023/03/20 10:49:41;;;;;;;;;;;;;;;;;;5152573;27;2081;-40
2023/03/20 10:52:11;;;;;;;;;;;;;;;;;;5153048;27;2138;-43
2023/03/20 10:54:41;;;;;;;;;;;;;;;;;;5152654;27;1884;-42
2023/03/20 10:57:20;;;;;;;;;;;;;;;;;;5135224;27;2021;-41
2023/03/20 10:59:49;;;;;;;;;;;;;;;;;;5131982;28;1661;-40
2023/03/20 11:02:18;;;;;;;;;;;;;;;;;;5131841;28;2127;-45
2023/03/20 11:04:45;;;;;;;;;;;;;;;;;;5132169;28;1693;-41
2023/03/20 11:07:20;;;;;;;;;;;;;;;;;;5131859;28;1935;-40
2023/03/20 11:10:09;;;;;;;;;;;;;;;;;;5131749;28;1639;-40
2023/03/20 11:12:38;;;;;;;;;;;;;;;;;;5131564;28;1971;-50
2023/03/20 11:15:22;;;;;;;;;;;;;;;;;;5132052;28;1970;-50
2023/03/20 11:17:53;;;;;;;;;;;;;;;;;;5131825;28;1908;-57
2023/03/20 11:20:21;;;;;;;;;;;;;;;;;;5131769;28;2210;-58
2023/03/20 11:22:49;;;;;;;;;;;;;;;;;;5132184;28;1896;-41
2023/03/20 11:25:36;;;;;;;;;;;;;;;;;;5131881;28;1913;-40
2023/03/20 11:28:19;;;;;;;;;;;;;;;;;;5131132;28;1676;-40
2023/03/20 11:30:47;;;;;;;;;;;;;;;;;;5131541;28;1999;-40
2023/03/20 11:33:32;;;;;;;;;;;;;;;;;;5131276;28;1970;-40
2023/03/20 11:36:00;;;;;;;;;;;;;;;;;;5130356;28;1572;-40
2023/03/20 11:38:28;;;;;;;;;;;;;;;;;;5132114;28;2012;-41
2023/03/20 11:40:55;;;;;;;;;;;;;;;;;;5131607;28;1995;-42
2023/03/20 11:43:25;;;;;;;;;;;;;;;;;;5132066;28;1523;-40
2023/03/20 11:45:59;;;;;;;;;;;;;;;;;;5132743;27;1515;-40
2023/03/20 11:48:37;;;;;;;;;;;;;;;;;;5135611;27;1558;-42
2023/03/20 11:51:09;;;;;;;;;;;;;;;;;;5135303;27;2451;-53
2023/03/20 11:54:00;;;;;;;;;;;;;;;;;;5135037;27;1909;-40
2023/03/20 11:56:29;;;;;;;;;;;;;;;;;;5129923;27;1980;-41
2023/03/20 11:59:02;;;;;;;;;;;;;;;;;;5135208;27;1892;-50
2023/03/20 12:01:36;;;;;;;;;;;;;;;;;;5135140;27;1848;-40
2023/03/20 12:04:04;;;;;;;;;;;;;;;;;;5134991;27;1541;-42
2023/03/20 12:06:41;;;;;;;;;;;;;;;;;;5135004;27;2016;-47
2023/03/20 12:09:12;;;;;;;;;;;;;;;;;;5135090;27;1871;-52
2023/03/20 12:11:43;;;;;;;;;;;;;;;;;;5134922;27;1996;-49
2023/03/20 12:14:29;;;;;;;;;;;;;;;;;;5134468;27;1996;-44
2023/03/20 12:17:04;;;;;;;;;;;;;;;;;;5134785;27;1976;-50
2023/03/20 12:19:32;;;;;;;;;;;;;;;;;;5134506;27;1891;-40
2023/03/20 12:22:12;;;;;;;;;;;;;;;;;;5134860;27;1730;-41
2023/03/20 12:24:45;;;;;;;;;;;;;;;;;;5134294;27;2146;-39
2023/03/20 12:27:21;;;;;;;;;;;;;;;;;;5134673;27;1684;-40
2023/03/20 12:29:51;;;;;;;;;;;;;;;;;;5134597;27;1898;-42
2023/03/20 12:32:37;;;;;;;;;;;;;;;;;;5134521;27;1992;-41
2023/03/20 12:35:10;;;;;;;;;;;;;;;;;;5134378;27;2101;-40
2023/03/20 12:37:37;;;;;;;;;;;;;;;;;;5134481;27;1970;-50
2023/03/20 12:40:05;;;;;;;;;;;;;;;;;;5134310;27;1894;-59
2023/03/20 12:42:41;;;;;;;;;;;;;;;;;;5134477;27;2104;-41
2023/03/20 12:45:08;;;;;;;;;;;;;;;;;;5134527;27;1857;-44
2023/03/20 12:47:54;;;;;;;;;;;;;;;;;;5134340;27;2040;-41
2023/03/20 12:50:25;;;;;;;;;;;;;;;;;;5116060;27;1927;-41
2023/03/20 12:52:55;;;;;;;;;;;;;;;;;;5134056;27;1925;-49
2023/03/20 12:55:35;;;;;;;;;;;;;;;;;;5135998;27;1522;-44
2023/03/20 12:58:21;;;;;;;;;;;;;;;;;;5154115;27;1833;-56
2023/03/20 13:01:00;;;;;;;;;;;;;;;;;;5154524;27;1656;-46
2023/03/20 13:03:40;;;;;;;;;;;;;;;;;;5154901;27;1383;-57
2023/03/20 13:06:27;;;;;;;;;;;;;;;;;;5154529;27;1907;-54
2023/03/20 13:09:00;;;;;;;;;;;;;;;;;;5154386;27;2208;-47
2023/03/20 13:11:27;;;;;;;;;;;;;;;;;;5154578;27;1863;-60
2023/03/20 13:13:57;;;;;;;;;;;;;;;;;;5154372;27;1915;-42
2023/03/20 13:16:33;;;;;;;;;;;;;;;;;;5154156;27;2220;-49
2023/03/20 13:19:00;;;;;;;;;;;;;;;;;;5154641;27;1782;-42
2023/03/20 13:21:28;;;;;;;;;;;;;;;;;;5154298;27;1828;-45
2023/03/20 13:24:11;;;;;;;;;;;;;;;;;;5154418;27;2117;-41
2023/03/20 13:26:44;;;;;;;;;;;;;;;;;;5154147;27;1965;-42
2023/03/20 13:29:22;;;;;;;;;;;;;;;;;;5153975;27;1640;-53
2023/03/20 13:31:52;;;;;;;;;;;;;;;;;;5154212;27;1781;-45
2023/03/20 13:34:50;;;;;;;;;;;;;;;;;;5153715;27;1913;-46
2023/03/20 13:37:32;;;;;;;;;;;;;;;;;;5153696;27;2211;-46
2023/03/20 13:40:12;;;;;;;;;;;;;;;;;;5153915;27;1981;-43
2023/03/20 13:42:51;;;;;;;;;;;;;;;;;;5153964;27;2271;-44
2023/03/20 13:45:23;;;;;;;;;;;;;;;;;;5153947;27;1453;-51
2023/03/20 13:47:51;;;;;;;;;;;;;;;;;;5153616;27;1692;-49
2023/03/20 13:50:37;;;;;;;;;;;;;;;;;;5153967;27;1995;-44
2023/03/20 13:53:17;;;;;;;;;;;;;;;;;;5151685;27;1905;-41
2023/03/20 13:55:50;;;;;;;;;;;;;;;;;;5146159;27;1724;-47
2023/03/20 13:58:18;;;;;;;;;;;;;;;;;;5130635;27;2100;-45
2023/03/20 14:00:50;;;;;;;;;;;;;;;;;;5130916;27;1915;-46
2023/03/20 14:03:27;;;;;;;;;;;;;;;;;;5130848;27;1943;-55
2023/03/20 14:05:54;;;;;;;;;;;;;;;;;;5130999;27;1869;-42
2023/03/20 14:08:37;;;;;;;;;;;;;;;;;;5132397;27;1978;-40
2023/03/20 14:11:06;;;;;;;;;;;;;;;;;;5132374;27;1570;-45
2023/03/20 14:13:34;;;;;;;;;;;;;;;;;;5132698;27;1970;-50
2023/03/20 14:16:03;;;;;;;;;;;;;;;;;;5132279;27;2174;-43
2023/03/20 14:18:30;;;;;;;;;;;;;;;;;;5132536;27;1712;-45
2023/03/20 14:21:01;;;;;;;;;;;;;;;;;;5131980;27;1907;-50
2023/03/20 14:23:34;;;;;;;;;;;;;;;;;;5132530;27;1780;-45
2023/03/20 14:26:28;;;;;;;;;;;;;;;;;;5132465;27;2074;-43
2023/03/20 14:28:59;;;;;;;;;;;;;;;;;;5116029;27;1281;-50
2023/03/20 14:31:29;;;;;;;;;;;;;;;;;;5132554;27;1868;-41
2023/03/20 14:33:59;;;;;;;;;;;;;;;;;;5132118;27;2042;-50
2023/03/20 14:36:42;;;;;;;;;;;;;;;;;;5132472;27;1779;-45
2023/03/20 14:39:14;;;;;;;;;;;;;;;;;;5132085;27;2063;-51
2023/03/20 14:41:41;;;;;;;;;;;;;;;;;;5132285;27;2081;-50
2023/03/20 14:44:20;;;;;;;;;;;;;;;;;;5132222;27;1744;-51
2023/03/20 14:46:54;;;;;;;;;;;;;;;;;;5131392;27;2169;-46
2023/03/20 14:49:41;;;;;;;;;;;;;;;;;;5132189;28;2090;-50
2023/03/20 14:52:17;;;;;;;;;;;;;;;;;;5122267;28;1921;-41
2023/03/20 14:54:50;;;;;;;;;;;;;;;;;;5131758;28;2197;-41
2023/03/20 14:57:26;;;;;;;;;;;;;;;;;;5131924;28;2060;-42
2023/03/20 14:59:53;;;;;;;;;;;;;;;;;;5132132;28;2172;-42
2023/03/20 15:02:30;;;;;;;;;;;;;;;;;;5132040;28;2049;-55
2023/03/20 15:04:57;;;;;;;;;;;;;;;;;;5131989;28;2013;-46
2023/03/20 15:07:27;;;;;;;;;;;;;;;;;;5131964;28;1963;-44
2023/03/20 15:09:58;;;;;;;;;;;;;;;;;;5131964;28;1736;-57
2023/03/20 15:12:27;;;;;;;;;;;;;;;;;;5131849;28;1818;-45
2023/03/20 15:14:55;;;;;;;;;;;;;;;;;;5131857;28;1999;-42
2023/03/20 15:17:48;;;;;;;;;;;;;;;;;;5131704;28;1961;-44
2023/03/20 15:20:17;;;;;;;;;;;;;;;;;;5127611;27;1837;-58
2023/03/20 15:22:55;;;;;;;;;;;;;;;;;;5134952;27;1973;-38
2023/03/20 15:25:29;;;;;;;;;;;;;;;;;;5135213;27;1708;-49
2023/03/20 15:27:57;;;;;;;;;;;;;;;;;;5135626;27;2020;-53
2023/03/20 15:30:24;;;;;;;;;;;;;;;;;;5135818;27;1714;-49
2023/03/20 15:32:53;;;;;;;;;;;;;;;;;;5135238;27;1876;-41
2023/03/20 15:35:22;;;;;;;;;;;;;;;;;;5135657;27;2117;-45
2023/03/20 15:37:52;;;;;;;;;;;;;;;;;;5135777;27;1684;-42
2023/03/20 15:40:27;;;;;;;;;;;;;;;;;;5135452;27;1844;-54
2023/03/20 15:43:09;;;;;;;;;;;;;;;;;;5135528;27;1912;-48
2023/03/20 15:45:38;;;;;;;;;;;;;;;;;;5135492;27;1716;-52
2023/03/20 15:48:06;;;;;;;;;;;;;;;;;;5135504;27;1855;-47
2023/03/20 15:50:35;;;;;;;;;;;;;;;;;;5135440;27;1868;-58
2023/03/20 15:53:04;;;;;;;;;;;;;;;;;;5135226;27;1615;-48
2023/03/20 15:55:33;;;;;;;;;;;;;;;;;;5138614;27;2004;-41
2023/03/20 15:58:01;;;;;;;;;;;;;;;;;;5156046;27;1674;-50
2023/03/20 16:00:30;;;;;;;;;;;;;;;;;;5155908;27;2032;-56
2023/03/20 16:03:02;;;;;;;;;;;;;;;;;;5155768;27;2149;-52
2023/03/20 16:05:30;;;;;;;;;;;;;;;;;;5155550;27;2177;-50
2023/03/20 16:08:12;;;;;;;;;;;;;;;;;;5155774;27;1657;-55
2023/03/20 16:10:42;;;;;;;;;;;;;;;;;;5156041;27;1784;-49
2023/03/20 16:13:12;;;;;;;;;;;;;;;;;;5154649;27;2054;-51
2023/03/20 16:15:39;;;;;;;;;;;;;;;;;;5134732;27;1901;-53
2023/03/20 16:18:07;;;;;;;;;;;;;;;;;;5135210;27;1873;-52
2023/03/20 16:20:37;;;;;;;;;;;;;;;;;;5134672;27;2027;-51
2023/03/20 16:23:07;;;;;;;;;;;;;;;;;;5134644;27;1420;-49
2023/03/20 16:25:35;;;;;;;;;;;;;;;;;;5134231;27;1825;-52
2023/03/20 16:28:07;;;;;;;;;;;;;;;;;;5134692;27;2041;-50
2023/03/20 16:30:34;;;;;;;;;;;;;;;;;;5134911;27;1895;-52
2023/03/20 16:33:11;;;;;;;;;;;;;;;;;;5133655;27;1955;-42
2023/03/20 16:35:42;;;;;;;;;;;;;;;;;;5134104;27;1912;-50
2023/03/20 16:38:18;;;;;;;;;;;;;;;;;;5134550;27;1936;-41
2023/03/20 16:40:46;;;;;;;;;;;;;;;;;;5134627;27;2054;-51
2023/03/20 16:43:15;;;;;;;;;;;;;;;;;;5134430;27;1429;-55
2023/03/20 16:45:49;;;;;;;;;;;;;;;;;;5134400;27;1846;-52
2023/03/20 16:48:21;;;;;;;;;;;;;;;;;;5134370;27;2153;-58
2023/03/20 16:50:53;;;;;;;;;;;;;;;;;;5134221;27;1827;-42
2023/03/20 16:53:22;;;;;;;;;;;;;;;;;;5115594;27;1706;-54
2023/03/20 16:55:50;;;;;;;;;;;;;;;;;;5133704;27;1943;-52
2023/03/20 16:58:19;;;;;;;;;;;;;;;;;;5134293;27;1875;-57
2023/03/20 17:00:57;;;;;;;;;;;;;;;;;;5133844;27;1989;-50
2023/03/20 17:03:26;;;;;;;;;;;;;;;;;;5133756;27;1811;-46
2023/03/20 17:05:58;;;;;;;;;;;;;;;;;;5133787;27;1534;-48
2023/03/20 17:08:30;;;;;;;;;;;;;;;;;;5133915;27;2264;-49
2023/03/20 17:10:59;;;;;;;;;;;;;;;;;;5133870;27;1894;-42
2023/03/20 17:13:26;;;;;;;;;;;;;;;;;;5133318;27;1998;-43
2023/03/20 17:15:53;;;;;;;;;;;;;;;;;;5149215;27;1967;-43
2023/03/20 17:18:20;;;;;;;;;;;;;;;;;;5153824;27;1625;-50
2023/03/20 17:20:48;;;;;;;;;;;;;;;;;;5154128;27;2125;-47
2023/03/20 17:23:18;;;;;;;;;;;;;;;;;;5153190;27;1636;-50
2023/03/20 17:25:47;;;;;;;;;;;;;;;;;;5154183;27;1860;-53
2023/03/20 17:28:18;;;;;;;;;;;;;;;;;;5154261;27;1456;-44
2023/03/20 17:30:47;;;;;;;;;;;;;;;;;;5153456;27;2089;-49
2023/03/20 17:33:14;;;;;;;;;;;;;;;;;;5152980;27;1909;-47
2023/03/20 17:35:42;;;;;;;;;;;;;;;;;;5153666;27;2049;-47
2023/03/20 17:38:30;;;;;;;;;;;;;;;;;;5153794;27;1764;-47
2023/03/20 17:40:57;;;;;;;;;;;;;;;;;;5154165;27;1925;-43
2023/03/20 17:43:24;;;;;;;;;;;;;;;;;;5135397;27;2301;-47